createdAt,value
2022-09-07T00:01:14.005Z,62.30
2022-09-07T00:03:42.295Z,62.40
2022-09-07T00:06:13.438Z,62.60
2022-09-07T00:08:43.702Z,62.80
2022-09-07T00:11:14.070Z,62.90
2022-09-07T00:13:45.607Z,63.10
2022-09-07T00:16:16.979Z,63.40
2022-09-07T00:18:46.547Z,63.60
2022-09-07T00:21:16.847Z,63.90
2022-09-07T00:23:45.688Z,64.30
2022-09-07T00:26:15.989Z,64.40
2022-09-07T00:28:46.473Z,64.70
2022-09-07T00:31:16.885Z,64.90
2022-09-07T00:33:46.079Z,65.30
2022-09-07T00:36:14.368Z,65.60
2022-09-07T00:38:42.628Z,65.80
2022-09-07T00:41:11.118Z,66.10
2022-09-07T00:43:41.222Z,66.40
2022-09-07T00:46:14.722Z,66.70
2022-09-07T00:48:46.986Z,66.90
2022-09-07T00:51:20.167Z,67.20
2022-09-07T00:53:53.778Z,67.40
2022-09-07T00:56:23.839Z,67.70
2022-09-07T00:58:53.548Z,67.90
2022-09-07T01:01:24.168Z,68.00
2022-09-07T01:03:55.017Z,68.30
2022-09-07T01:06:26.322Z,68.50
2022-09-07T01:08:56.498Z,68.70
2022-09-07T01:11:25.121Z,68.80
2022-09-07T01:13:55.082Z,69.00
2022-09-07T01:16:37.530Z,69.20
2022-09-07T01:19:37.163Z,69.20
2022-09-07T01:22:14.028Z,69.50
2022-09-07T01:25:02.752Z,69.60
2022-09-07T01:28:05.842Z,69.80
2022-09-07T01:30:37.887Z,70.00
2022-09-07T01:33:17.911Z,70.10
2022-09-07T01:35:52.781Z,70.20
2022-09-07T01:38:29.737Z,70.40
2022-09-07T01:41:04.560Z,70.50
2022-09-07T01:43:41.431Z,70.60
2022-09-07T01:46:18.123Z,70.80
2022-09-07T01:48:49.402Z,70.90
2022-09-07T01:51:19.775Z,70.90
2022-09-07T01:53:55.090Z,71.00
2022-09-07T01:56:28.517Z,71.10
2022-09-07T01:59:01.671Z,71.10
2022-09-07T02:01:34.643Z,71.10
2022-09-07T02:04:08.321Z,71.10
2022-09-07T02:06:42.443Z,71.10
2022-09-07T02:09:15.646Z,71.00
2022-09-07T02:11:47.819Z,70.90
2022-09-07T02:14:21.212Z,71.10
2022-09-07T02:16:55.909Z,71.10
2022-09-07T02:19:26.297Z,71.30
2022-09-07T02:22:00.633Z,71.50
2022-09-07T02:24:33.926Z,71.50
2022-09-07T02:27:06.275Z,71.60
2022-09-07T02:29:36.032Z,71.60
2022-09-07T02:32:04.815Z,71.80
2022-09-07T02:34:33.431Z,71.80
2022-09-07T02:37:05.696Z,71.80
2022-09-07T02:39:34.912Z,72.00
2022-09-07T02:42:03.271Z,71.90
2022-09-07T02:44:34.778Z,72.00
2022-09-07T02:47:21.640Z,72.00
2022-09-07T02:50:26.795Z,72.20
2022-09-07T02:53:09.995Z,71.80
2022-09-07T02:55:50.314Z,72.00
2022-09-07T02:58:28.407Z,72.10
2022-09-07T03:01:07.173Z,72.10
2022-09-07T03:03:44.740Z,71.90
2022-09-07T03:06:20.316Z,72.30
2022-09-07T03:08:51.572Z,72.00
2022-09-07T03:11:20.372Z,71.80
2022-09-07T03:13:48.633Z,72.10
2022-09-07T03:16:17.363Z,71.70
2022-09-07T03:18:47.009Z,71.20
2022-09-07T03:21:15.202Z,70.90
2022-09-07T03:23:43.386Z,70.30
2022-09-07T03:26:24.231Z,70.00
2022-09-07T03:28:52.548Z,69.80
2022-09-07T03:31:20.901Z,69.40
2022-09-07T03:33:50.584Z,69.40
2022-09-07T03:36:18.819Z,69.50
2022-09-07T03:38:47.294Z,69.20
2022-09-07T03:41:15.503Z,69.10
2022-09-07T03:43:44.537Z,68.90
2022-09-07T03:46:17.723Z,68.80
2022-09-07T03:48:46.852Z,68.70
2022-09-07T03:51:18.617Z,68.50
2022-09-07T03:53:48.099Z,68.40
2022-09-07T03:56:18.319Z,68.30
2022-09-07T03:58:47.792Z,68.10
2022-09-07T04:01:18.124Z,68.10
2022-09-07T04:03:47.018Z,67.90
2022-09-07T04:06:17.165Z,67.80
2022-09-07T04:08:45.753Z,67.70
2022-09-07T04:11:16.618Z,67.60
2022-09-07T04:13:45.353Z,67.30
2022-09-07T04:16:16.406Z,67.10
2022-09-07T04:18:44.752Z,67.00
2022-09-07T04:21:14.011Z,66.90
2022-09-07T04:23:44.434Z,67.00
2022-09-07T04:26:17.536Z,66.90
2022-09-07T04:28:46.601Z,66.90
2022-09-07T04:31:16.443Z,66.80
2022-09-07T04:33:45.329Z,66.70
2022-09-07T04:36:14.184Z,66.70
2022-09-07T04:38:44.104Z,66.60
2022-09-07T04:41:14.774Z,66.70
2022-09-07T04:43:44.130Z,66.50
2022-09-07T04:46:19.423Z,66.60
2022-09-07T04:48:49.520Z,66.60
2022-09-07T04:51:21.608Z,66.70
2022-09-07T04:53:53.562Z,66.90
2022-09-07T04:56:22.824Z,67.00
2022-09-07T04:58:51.739Z,66.90
2022-09-07T05:01:21.419Z,67.10
2022-09-07T05:03:50.396Z,67.20
2022-09-07T05:06:20.149Z,67.30
2022-09-07T05:08:51.342Z,67.50
2022-09-07T05:11:23.799Z,68.00
2022-09-07T05:13:56.297Z,68.10
2022-09-07T05:16:25.985Z,68.30
2022-09-07T05:18:56.114Z,68.50
2022-09-07T05:21:26.102Z,68.40
2022-09-07T05:23:57.244Z,68.50
2022-09-07T05:26:28.023Z,68.60
2022-09-07T05:31:44.734Z,68.80
2022-09-07T05:36:56.674Z,69.00
2022-09-07T05:39:26.931Z,69.20
2022-09-07T05:41:55.315Z,69.00
2022-09-07T05:47:12.966Z,69.00
2022-09-07T05:49:41.520Z,69.10
2022-09-07T05:52:09.755Z,69.20
2022-09-07T05:54:40.202Z,69.50
2022-09-07T05:57:09.114Z,69.60
2022-09-07T05:59:37.372Z,69.80
2022-09-07T06:02:06.438Z,69.90
2022-09-07T06:04:34.883Z,70.10
2022-09-07T06:07:22.107Z,70.20
2022-09-07T06:12:43.444Z,70.30
2022-09-07T06:15:15.326Z,70.30
2022-09-07T06:17:43.601Z,70.40
2022-09-07T06:20:12.196Z,70.40
2022-09-07T06:22:40.671Z,70.30
2022-09-07T06:25:10.878Z,70.30
2022-09-07T06:27:39.232Z,70.20
2022-09-07T06:30:08.576Z,69.90
2022-09-07T06:35:09.082Z,69.70
2022-09-07T06:37:37.379Z,69.70
2022-09-07T06:40:07.457Z,69.60
2022-09-07T06:42:37.387Z,69.40
2022-09-07T06:45:06.641Z,69.20
2022-09-07T06:47:34.944Z,69.00
2022-09-07T06:50:03.162Z,68.90
2022-09-07T06:55:19.681Z,68.70
2022-09-07T06:57:49.412Z,68.40
2022-09-07T07:00:18.163Z,68.00
2022-09-07T07:02:46.327Z,67.40
2022-09-07T07:05:14.604Z,67.20
2022-09-07T07:07:42.826Z,67.10
2022-09-07T07:10:11.340Z,66.90
2022-09-07T07:15:10.063Z,66.30
2022-09-07T07:17:38.338Z,66.00
2022-09-07T07:20:07.633Z,65.80
2022-09-07T07:22:46.642Z,65.50
2022-09-07T07:25:16.525Z,65.30
2022-09-07T07:27:48.423Z,64.90
2022-09-07T07:30:19.531Z,64.80
2022-09-07T07:32:48.383Z,64.60
2022-09-07T07:35:17.002Z,63.90
2022-09-07T07:37:45.188Z,64.00
2022-09-07T07:40:16.872Z,63.90
2022-09-07T07:42:47.420Z,64.00
2022-09-07T07:48:06.668Z,64.30
2022-09-07T07:50:34.997Z,64.30
2022-09-07T07:55:51.794Z,63.80
2022-09-07T07:58:20.054Z,63.50
2022-09-07T08:00:57.330Z,63.70
2022-09-07T08:03:26.450Z,63.00
2022-09-07T08:05:55.010Z,62.60
2022-09-07T08:08:24.414Z,62.30
2022-09-07T08:10:53.356Z,62.10
2022-09-07T08:13:22.330Z,62.20
2022-09-07T08:15:52.030Z,61.80
2022-09-07T08:18:20.247Z,61.40
2022-09-07T08:20:48.565Z,61.30
2022-09-07T08:23:17.243Z,61.10
2022-09-07T08:25:52.271Z,60.70
2022-09-07T08:28:20.926Z,60.20
2022-09-07T08:30:49.444Z,60.30
2022-09-07T08:33:19.131Z,60.10
2022-09-07T08:35:56.893Z,60.10
2022-09-07T08:38:25.235Z,59.80
2022-09-07T08:40:53.958Z,59.50
2022-09-07T08:43:35.628Z,59.30
2022-09-07T08:46:10.189Z,58.90
2022-09-07T08:48:41.107Z,58.80
2022-09-07T08:51:22.353Z,58.40
2022-09-07T08:53:52.887Z,58.40
2022-09-07T08:56:32.965Z,58.10
2022-09-07T08:59:06.327Z,58.10
2022-09-07T09:01:39.583Z,57.70
2022-09-07T09:04:16.475Z,57.80
2022-09-07T09:06:53.661Z,58.00
2022-09-07T09:09:32.651Z,58.20
2022-09-07T09:12:14.105Z,57.80
2022-09-07T09:14:56.703Z,57.50
2022-09-07T09:17:31.802Z,57.50
2022-09-07T09:20:13.999Z,57.30
2022-09-07T09:22:42.345Z,57.10
2022-09-07T09:25:20.570Z,57.40
2022-09-07T09:27:49.232Z,57.30
2022-09-07T09:30:19.068Z,56.90
2022-09-07T09:32:48.898Z,57.10
2022-09-07T09:35:28.169Z,57.30
2022-09-07T09:37:57.655Z,56.60
2022-09-07T09:40:28.410Z,56.80
2022-09-07T09:43:07.899Z,56.70
2022-09-07T09:48:33.680Z,56.00
2022-09-07T09:54:00.685Z,55.30
2022-09-07T09:56:42.945Z,55.10
2022-09-07T10:05:34.989Z,54.50
2022-09-07T10:08:15.187Z,54.30
2022-09-07T10:10:52.771Z,54.10
2022-09-07T10:13:22.881Z,54.30
2022-09-07T10:15:56.358Z,53.90
2022-09-07T10:18:32.444Z,53.60
2022-09-07T10:21:15.446Z,53.40
2022-09-07T10:23:45.040Z,53.40
2022-09-07T10:26:28.531Z,53.30
2022-09-07T10:29:14.911Z,52.70
2022-09-07T10:32:07.477Z,52.90
2022-09-07T10:34:47.311Z,53.20
2022-09-07T10:37:25.925Z,53.00
2022-09-07T10:40:05.236Z,52.30
2022-09-07T10:42:36.849Z,53.10
2022-09-07T10:45:25.779Z,53.20
2022-09-07T10:48:01.716Z,52.40
2022-09-07T10:50:38.978Z,52.00
2022-09-07T10:53:42.261Z,52.30
2022-09-07T10:56:16.972Z,52.60
2022-09-07T10:59:02.978Z,52.20
2022-09-07T11:01:40.219Z,52.00
2022-09-07T11:04:29.342Z,52.20
2022-09-07T11:07:06.895Z,52.30
2022-09-07T11:09:52.983Z,52.00
2022-09-07T11:12:28.263Z,52.20
2022-09-07T11:15:06.479Z,51.80
2022-09-07T11:17:44.266Z,51.60
2022-09-07T11:20:22.747Z,51.90
2022-09-07T11:22:57.953Z,51.90
2022-09-07T11:25:31.144Z,51.40
2022-09-07T11:28:05.250Z,51.50
2022-09-07T11:30:36.131Z,51.60
2022-09-07T11:33:13.592Z,50.70
2022-09-07T11:35:48.902Z,51.00
2022-09-07T11:38:26.800Z,50.20
2022-09-07T11:41:09.068Z,50.00
2022-09-07T11:43:42.979Z,48.40
2022-09-07T11:46:16.186Z,49.00
2022-09-07T11:48:48.630Z,48.40
2022-09-07T11:51:22.377Z,47.70
2022-09-07T11:53:55.181Z,47.00
2022-09-07T11:56:29.778Z,47.00
2022-09-07T11:59:16.221Z,46.90
2022-09-07T12:01:55.324Z,46.50
2022-09-07T12:04:40.329Z,46.90
2022-09-07T12:07:37.128Z,47.10
2022-09-07T12:10:40.801Z,46.80
2022-09-07T12:13:29.136Z,45.80
2022-09-07T12:16:07.286Z,45.40
2022-09-07T12:19:06.238Z,45.00
2022-09-07T12:21:42.676Z,44.60
2022-09-07T12:24:40.574Z,44.80
2022-09-07T12:27:13.045Z,45.10
2022-09-07T12:29:45.198Z,44.90
2022-09-07T12:35:40.159Z,45.10
2022-09-07T12:38:41.570Z,45.60
2022-09-07T12:41:24.446Z,45.80
2022-09-07T12:44:08.340Z,45.40
2022-09-07T12:46:47.007Z,45.30
2022-09-07T12:49:45.179Z,45.10
2022-09-07T12:52:40.706Z,45.00
2022-09-07T12:58:44.176Z,44.50
2022-09-07T13:01:22.859Z,43.70
2022-09-07T13:04:22.958Z,43.30
2022-09-07T13:07:17.751Z,43.30
2022-09-07T13:09:56.657Z,42.90
2022-09-07T13:15:51.165Z,43.00
2022-09-07T13:18:41.670Z,42.40
2022-09-07T13:21:39.197Z,41.70
2022-09-07T13:24:46.575Z,42.50
2022-09-07T13:27:46.803Z,42.80
2022-09-07T13:30:39.406Z,42.40
2022-09-07T13:33:45.565Z,42.30
2022-09-07T13:36:27.010Z,42.20
2022-09-07T13:38:57.449Z,42.10
2022-09-07T13:41:33.049Z,42.00
2022-09-07T13:44:03.873Z,42.00
2022-09-07T13:46:51.313Z,41.70
2022-09-07T13:49:36.409Z,41.70
2022-09-07T13:52:10.609Z,41.70
2022-09-07T13:54:50.698Z,41.40
2022-09-07T13:57:26.974Z,41.80
2022-09-07T13:59:57.325Z,41.80
2022-09-07T14:02:28.792Z,41.50
2022-09-07T14:05:00.402Z,41.80
2022-09-07T14:07:30.392Z,41.70
2022-09-07T14:10:14.208Z,41.60
2022-09-07T14:12:48.926Z,41.50
2022-09-07T14:15:23.543Z,41.20
2022-09-07T14:18:02.957Z,40.80
2022-09-07T14:20:32.574Z,40.90
2022-09-07T14:23:01.333Z,40.80
2022-09-07T14:25:29.755Z,40.70
2022-09-07T14:28:01.121Z,40.50
2022-09-07T14:30:32.020Z,40.60
2022-09-07T14:33:04.743Z,40.90
2022-09-07T14:35:34.872Z,40.80
2022-09-07T14:38:08.079Z,40.80
2022-09-07T14:40:36.888Z,40.30
2022-09-07T14:43:30.790Z,40.30
2022-09-07T14:46:17.845Z,40.10
2022-09-07T14:48:48.136Z,40.30
2022-09-07T14:51:34.823Z,40.40
2022-09-07T14:54:06.687Z,40.00
2022-09-07T14:56:37.241Z,39.80
2022-09-07T14:59:36.713Z,40.10
2022-09-07T15:02:34.080Z,40.20
2022-09-07T15:05:25.454Z,40.30
2022-09-07T15:07:56.111Z,40.50
2022-09-07T15:10:35.258Z,40.80
2022-09-07T15:13:05.548Z,40.60
2022-09-07T15:15:37.431Z,40.40
2022-09-07T15:18:27.478Z,40.10
2022-09-07T15:20:55.613Z,39.70
2022-09-07T15:23:23.752Z,40.10
2022-09-07T15:25:54.118Z,40.20
2022-09-07T15:34:09.997Z,41.90
2022-09-07T15:36:40.337Z,42.10
2022-09-07T15:39:09.030Z,42.70
2022-09-07T15:41:37.179Z,43.10
2022-09-07T15:44:05.386Z,43.70
2022-09-07T15:46:37.046Z,44.10
2022-09-07T15:49:05.528Z,44.30
2022-09-07T15:54:21.864Z,45.30
2022-09-07T15:59:38.146Z,46.70
2022-09-07T16:03:04.516Z,47.10
2022-09-07T16:04:56.051Z,47.60
2022-09-07T16:08:24.688Z,47.60
2022-09-07T16:10:13.936Z,47.60
2022-09-07T16:15:30.482Z,48.00
2022-09-07T16:18:00.006Z,48.40
2022-09-07T16:20:32.097Z,48.70
2022-09-07T16:23:17.251Z,49.20
2022-09-07T16:25:57.552Z,49.90
2022-09-07T16:28:26.136Z,50.40
2022-09-07T16:30:54.443Z,50.90
2022-09-07T16:33:32.795Z,51.40
2022-09-07T16:36:07.528Z,52.00
2022-09-07T16:38:51.428Z,52.70
2022-09-07T16:41:22.766Z,53.50
2022-09-07T16:43:51.703Z,54.70
2022-09-07T16:46:21.668Z,55.80
2022-09-07T16:48:52.320Z,56.80
2022-09-07T16:51:24.774Z,56.90
2022-09-07T16:53:55.855Z,57.80
2022-09-07T16:56:26.960Z,58.50
2022-09-07T16:58:57.013Z,59.10
2022-09-07T17:01:27.446Z,59.70
2022-09-07T17:03:57.407Z,60.00
2022-09-07T17:06:27.249Z,60.70
2022-09-07T17:08:55.660Z,61.60
2022-09-07T17:11:25.649Z,62.60
2022-09-07T17:13:54.666Z,63.10
2022-09-07T17:16:25.440Z,63.60
2022-09-07T17:21:44.387Z,64.50
2022-09-07T17:24:14.304Z,65.00
2022-09-07T17:26:42.770Z,65.40
2022-09-07T17:29:13.059Z,65.60
2022-09-07T17:34:30.360Z,66.40
2022-09-07T17:37:01.223Z,66.70
2022-09-07T17:39:29.739Z,66.90
2022-09-07T17:41:58.202Z,67.30
2022-09-07T17:44:30.695Z,67.60
2022-09-07T17:47:00.112Z,67.80
2022-09-07T17:49:29.454Z,67.80
2022-09-07T17:52:01.151Z,68.00
2022-09-07T17:54:29.616Z,68.50
2022-09-07T17:56:57.732Z,68.50
2022-09-07T18:02:14.752Z,68.70
2022-09-07T18:04:43.051Z,69.10
2022-09-07T18:07:12.607Z,69.30
2022-09-07T18:09:40.752Z,69.40
2022-09-07T18:12:09.052Z,69.80
2022-09-07T18:14:37.195Z,69.80
2022-09-07T18:17:06.139Z,69.80
2022-09-07T18:19:34.366Z,70.00
2022-09-07T18:22:03.937Z,70.10
2022-09-07T18:24:36.873Z,70.10
2022-09-07T18:27:05.723Z,70.20
2022-09-07T18:29:34.498Z,70.20
2022-09-07T18:32:08.070Z,70.20
2022-09-07T18:34:37.505Z,70.30
2022-09-07T18:37:06.078Z,70.30
2022-09-07T18:39:36.001Z,70.40
2022-09-07T18:42:04.460Z,70.80
2022-09-07T18:47:28.084Z,71.70
2022-09-07T18:49:57.810Z,71.90
2022-09-07T18:55:16.330Z,72.40
2022-09-07T18:57:44.941Z,72.80
2022-09-07T19:00:14.547Z,73.00
2022-09-07T19:02:42.806Z,73.10
2022-09-07T19:08:03.364Z,73.40
2022-09-07T19:10:35.469Z,73.30
2022-09-07T19:13:03.616Z,73.00
2022-09-07T19:15:37.349Z,73.00
2022-09-07T19:18:06.972Z,73.00
2022-09-07T19:20:36.343Z,73.20
2022-09-07T19:23:04.476Z,73.30
2022-09-07T19:25:33.962Z,73.40
2022-09-07T19:28:02.160Z,73.50
2022-09-07T19:30:30.518Z,73.50
2022-09-07T19:33:02.112Z,73.70
2022-09-07T19:35:36.154Z,73.80
2022-09-07T19:38:04.287Z,73.90
2022-09-07T19:40:33.851Z,73.90
2022-09-07T19:43:01.935Z,74.00
2022-09-07T19:45:30.169Z,73.90
2022-09-07T19:47:58.555Z,74.10
2022-09-07T19:50:26.683Z,74.10
2022-09-07T19:52:54.823Z,74.20
2022-09-07T19:55:22.894Z,74.30
2022-09-07T19:57:52.539Z,74.40
2022-09-07T20:00:20.857Z,74.20
2022-09-07T20:02:50.093Z,74.50
2022-09-07T20:05:18.614Z,74.40
2022-09-07T20:07:47.079Z,74.30
2022-09-07T20:10:15.294Z,74.30
2022-09-07T20:12:43.418Z,74.30
2022-09-07T20:15:13.165Z,74.30
2022-09-07T20:17:41.338Z,74.30
2022-09-07T20:20:10.506Z,74.20
2022-09-07T20:22:38.648Z,74.10
2022-09-07T20:25:11.314Z,74.30
2022-09-07T20:27:41.185Z,74.40
2022-09-07T20:30:10.423Z,74.30
2022-09-07T20:32:40.282Z,74.00
2022-09-07T20:35:09.081Z,74.30
2022-09-07T20:37:37.361Z,74.20
2022-09-07T20:40:07.256Z,74.20
2022-09-07T20:42:35.508Z,74.40
2022-09-07T20:45:03.889Z,74.60
2022-09-07T20:47:32.130Z,74.50
2022-09-07T20:50:01.592Z,74.40
2022-09-07T20:52:29.669Z,74.70
2022-09-07T20:54:57.779Z,74.80
2022-09-07T20:57:25.904Z,74.70
2022-09-07T20:59:54.048Z,74.60
2022-09-07T21:02:22.243Z,74.60
2022-09-07T21:04:50.435Z,74.50
2022-09-07T21:07:19.862Z,74.60
2022-09-07T21:09:47.967Z,74.80
2022-09-07T21:12:16.296Z,75.20
2022-09-07T21:14:46.022Z,75.60
2022-09-07T21:17:14.157Z,75.70
2022-09-07T21:19:42.294Z,75.70
2022-09-07T21:22:10.487Z,76.30
2022-09-07T21:24:40.046Z,76.70
2022-09-07T21:27:08.193Z,76.70
2022-09-07T21:29:36.464Z,76.70
2022-09-07T21:32:07.217Z,76.80
2022-09-07T21:34:35.540Z,76.70
2022-09-07T21:37:04.134Z,77.10
2022-09-07T21:39:34.584Z,77.30
2022-09-07T21:42:07.731Z,77.00
2022-09-07T21:44:38.193Z,77.00
2022-09-07T21:47:09.254Z,77.20
2022-09-07T21:49:43.400Z,77.30
2022-09-07T21:52:12.522Z,77.50
2022-09-07T21:54:40.673Z,77.60
2022-09-07T21:57:10.146Z,77.80
2022-09-07T21:59:38.390Z,78.00
2022-09-07T22:02:06.656Z,78.50
2022-09-07T22:04:34.879Z,78.90
2022-09-07T22:07:03.094Z,79.30
2022-09-07T22:09:31.199Z,79.60
2022-09-07T22:12:00.016Z,79.80
2022-09-07T22:14:29.556Z,79.80
2022-09-07T22:16:57.652Z,79.90
2022-09-07T22:19:25.691Z,80.00
2022-09-07T22:21:54.334Z,80.00
2022-09-07T22:24:22.464Z,80.00
2022-09-07T22:26:50.858Z,80.00
2022-09-07T22:29:18.976Z,80.00
2022-09-07T22:31:48.461Z,80.30
2022-09-07T22:34:16.594Z,80.50
2022-09-07T22:36:45.889Z,80.30
2022-09-07T22:39:16.299Z,80.50
2022-09-07T22:41:45.496Z,80.50
2022-09-07T22:44:14.948Z,80.50
2022-09-07T22:46:44.769Z,80.50
2022-09-07T22:49:16.220Z,80.20
2022-09-07T22:51:45.012Z,80.30
2022-09-07T22:54:13.235Z,80.30
2022-09-07T22:56:41.392Z,80.20
2022-09-07T22:59:10.649Z,80.40
2022-09-07T23:01:39.069Z,80.50
2022-09-07T23:04:08.077Z,80.70
2022-09-07T23:06:39.679Z,80.80
2022-09-07T23:09:10.202Z,80.80
2022-09-07T23:11:38.343Z,80.90
2022-09-07T23:14:08.202Z,80.90
2022-09-07T23:16:36.369Z,80.90
2022-09-07T23:19:04.572Z,80.90
2022-09-07T23:21:32.836Z,80.70
2022-09-07T23:24:02.681Z,80.70
2022-09-07T23:26:32.257Z,80.70
2022-09-07T23:29:02.668Z,80.80
2022-09-07T23:31:33.119Z,80.90
2022-09-07T23:34:02.223Z,81.00
2022-09-07T23:36:31.040Z,81.10
2022-09-07T23:39:01.823Z,81.10
2022-09-07T23:41:29.930Z,81.10
2022-09-07T23:43:58.635Z,81.20
2022-09-07T23:46:26.970Z,81.20
2022-09-07T23:48:55.158Z,81.20
2022-09-07T23:51:24.758Z,81.20
2022-09-07T23:53:53.561Z,81.30
2022-09-07T23:56:24.473Z,81.40
2022-09-07T23:58:52.801Z,81.40
